sensor_id;sensor_type;location;lat;lon;timestamp;P1;durP1;ratioP1;P2;durP2;ratioP2
11197;SDS011;5655;48.744;9.162;2023-04-21T00:01:59;26.80;;;18.33;;
11197;SDS011;5655;48.744;9.162;2023-04-21T00:04:24;29.10;;;19.48;;
11197;SDS011;5655;48.744;9.162;2023-04-21T00:06:50;28.65;;;19.00;;
11197;SDS011;5655;48.744;9.162;2023-04-21T00:09:17;27.45;;;18.10;;
11197;SDS011;5655;48.744;9.162;2023-04-21T00:11:42;27.98;;;18.90;;
11197;SDS011;5655;48.744;9.162;2023-04-21T00:14:07;27.60;;;18.15;;
11197;SDS011;5655;48.744;9.162;2023-04-21T00:16:33;30.90;;;19.25;;
11197;SDS011;5655;48.744;9.162;2023-04-21T00:18:58;28.48;;;19.13;;
11197;SDS011;5655;48.744;9.162;2023-04-21T00:21:23;31.08;;;19.80;;
11197;SDS011;5655;48.744;9.162;2023-04-21T00:23:49;28.92;;;19.85;;
11197;SDS011;5655;48.744;9.162;2023-04-21T00:26:14;32.38;;;19.55;;
11197;SDS011;5655;48.744;9.162;2023-04-21T00:28:39;31.10;;;20.45;;
11197;SDS011;5655;48.744;9.162;2023-04-21T00:31:05;33.97;;;21.08;;
11197;SDS011;5655;48.744;9.162;2023-04-21T00:33:30;34.10;;;21.17;;
11197;SDS011;5655;48.744;9.162;2023-04-21T00:35:55;37.08;;;21.67;;
11197;SDS011;5655;48.744;9.162;2023-04-21T00:38:23;37.33;;;23.15;;
11197;SDS011;5655;48.744;9.162;2023-04-21T00:40:48;37.53;;;23.42;;
11197;SDS011;5655;48.744;9.162;2023-04-21T00:43:13;38.28;;;24.60;;
11197;SDS011;5655;48.744;9.162;2023-04-21T00:45:39;39.47;;;23.75;;
11197;SDS011;5655;48.744;9.162;2023-04-21T00:48:04;39.47;;;23.35;;
11197;SDS011;5655;48.744;9.162;2023-04-21T00:50:31;39.13;;;24.27;;
11197;SDS011;5655;48.744;9.162;2023-04-21T00:52:57;40.10;;;25.38;;
11197;SDS011;5655;48.744;9.162;2023-04-21T00:55:23;42.30;;;26.60;;
11197;SDS011;5655;48.744;9.162;2023-04-21T00:57:49;37.33;;;23.92;;
11197;SDS011;5655;48.744;9.162;2023-04-21T01:00:16;37.78;;;24.83;;
11197;SDS011;5655;48.744;9.162;2023-04-21T01:02:41;43.00;;;26.20;;
11197;SDS011;5655;48.744;9.162;2023-04-21T01:05:09;39.95;;;24.80;;
11197;SDS011;5655;48.744;9.162;2023-04-21T01:07:35;40.03;;;25.13;;
11197;SDS011;5655;48.744;9.162;2023-04-21T01:10:01;43.20;;;25.45;;
11197;SDS011;5655;48.744;9.162;2023-04-21T01:12:27;38.15;;;25.45;;
11197;SDS011;5655;48.744;9.162;2023-04-21T01:14:52;38.97;;;25.75;;
11197;SDS011;5655;48.744;9.162;2023-04-21T01:17:18;42.40;;;26.35;;
11197;SDS011;5655;48.744;9.162;2023-04-21T01:19:43;42.15;;;26.40;;
11197;SDS011;5655;48.744;9.162;2023-04-21T01:22:10;42.00;;;26.67;;
11197;SDS011;5655;48.744;9.162;2023-04-21T01:24:37;39.67;;;26.25;;
11197;SDS011;5655;48.744;9.162;2023-04-21T01:27:07;44.50;;;25.50;;
11197;SDS011;5655;48.744;9.162;2023-04-21T01:29:34;43.78;;;25.55;;
11197;SDS011;5655;48.744;9.162;2023-04-21T01:32:06;36.80;;;23.40;;
11197;SDS011;5655;48.744;9.162;2023-04-21T01:34:33;39.53;;;25.65;;
11197;SDS011;5655;48.744;9.162;2023-04-21T01:36:58;42.40;;;25.70;;
11197;SDS011;5655;48.744;9.162;2023-04-21T01:39:24;41.28;;;24.98;;
11197;SDS011;5655;48.744;9.162;2023-04-21T01:41:49;39.83;;;24.80;;
11197;SDS011;5655;48.744;9.162;2023-04-21T01:44:14;37.90;;;24.37;;
11197;SDS011;5655;48.744;9.162;2023-04-21T01:46:40;40.03;;;27.00;;
11197;SDS011;5655;48.744;9.162;2023-04-21T01:49:05;45.17;;;26.83;;
11197;SDS011;5655;48.744;9.162;2023-04-21T01:51:31;45.20;;;26.65;;
11197;SDS011;5655;48.744;9.162;2023-04-21T01:53:57;41.53;;;25.08;;
11197;SDS011;5655;48.744;9.162;2023-04-21T01:56:22;41.55;;;25.65;;
11197;SDS011;5655;48.744;9.162;2023-04-21T01:58:47;38.70;;;24.98;;
11197;SDS011;5655;48.744;9.162;2023-04-21T02:01:13;39.50;;;24.73;;
11197;SDS011;5655;48.744;9.162;2023-04-21T02:03:38;47.97;;;26.70;;
11197;SDS011;5655;48.744;9.162;2023-04-21T02:06:04;41.40;;;25.73;;
11197;SDS011;5655;48.744;9.162;2023-04-21T02:08:30;41.50;;;25.92;;
11197;SDS011;5655;48.744;9.162;2023-04-21T02:10:55;41.50;;;26.33;;
11197;SDS011;5655;48.744;9.162;2023-04-21T02:13:20;45.80;;;27.37;;
11197;SDS011;5655;48.744;9.162;2023-04-21T02:15:45;43.35;;;26.15;;
11197;SDS011;5655;48.744;9.162;2023-04-21T02:18:11;45.57;;;27.10;;
11197;SDS011;5655;48.744;9.162;2023-04-21T02:20:37;46.03;;;26.35;;
11197;SDS011;5655;48.744;9.162;2023-04-21T02:23:02;42.88;;;28.13;;
11197;SDS011;5655;48.744;9.162;2023-04-21T02:25:28;48.10;;;26.80;;
11197;SDS011;5655;48.744;9.162;2023-04-21T02:27:54;46.20;;;26.00;;
11197;SDS011;5655;48.744;9.162;2023-04-21T02:30:20;39.33;;;24.35;;
11197;SDS011;5655;48.744;9.162;2023-04-21T02:32:45;42.70;;;26.77;;
11197;SDS011;5655;48.744;9.162;2023-04-21T02:35:10;50.58;;;29.58;;
11197;SDS011;5655;48.744;9.162;2023-04-21T02:37:36;50.60;;;27.55;;
11197;SDS011;5655;48.744;9.162;2023-04-21T02:40:01;46.28;;;26.83;;
11197;SDS011;5655;48.744;9.162;2023-04-21T02:42:26;48.70;;;27.63;;
11197;SDS011;5655;48.744;9.162;2023-04-21T02:44:52;47.90;;;28.75;;
11197;SDS011;5655;48.744;9.162;2023-04-21T02:47:17;51.72;;;27.67;;
11197;SDS011;5655;48.744;9.162;2023-04-21T02:49:42;49.55;;;27.95;;
11197;SDS011;5655;48.744;9.162;2023-04-21T02:52:07;47.90;;;27.13;;
11197;SDS011;5655;48.744;9.162;2023-04-21T02:54:33;49.97;;;28.13;;
11197;SDS011;5655;48.744;9.162;2023-04-21T02:56:58;50.93;;;28.33;;
11197;SDS011;5655;48.744;9.162;2023-04-21T02:59:24;48.43;;;27.37;;
11197;SDS011;5655;48.744;9.162;2023-04-21T03:01:49;46.20;;;27.43;;
11197;SDS011;5655;48.744;9.162;2023-04-21T03:04:14;53.80;;;28.57;;
11197;SDS011;5655;48.744;9.162;2023-04-21T03:06:40;47.80;;;26.13;;
11197;SDS011;5655;48.744;9.162;2023-04-21T03:09:05;40.37;;;24.33;;
11197;SDS011;5655;48.744;9.162;2023-04-21T03:11:31;40.73;;;25.00;;
11197;SDS011;5655;48.744;9.162;2023-04-21T03:13:56;45.30;;;25.47;;
11197;SDS011;5655;48.744;9.162;2023-04-21T03:16:21;51.73;;;26.87;;
11197;SDS011;5655;48.744;9.162;2023-04-21T03:18:46;46.63;;;27.35;;
11197;SDS011;5655;48.744;9.162;2023-04-21T03:21:12;39.97;;;23.92;;
11197;SDS011;5655;48.744;9.162;2023-04-21T03:23:37;95.33;;;34.80;;
11197;SDS011;5655;48.744;9.162;2023-04-21T03:26:08;70.93;;;30.03;;
11197;SDS011;5655;48.744;9.162;2023-04-21T03:28:34;55.63;;;29.50;;
11197;SDS011;5655;48.744;9.162;2023-04-21T03:30:59;48.97;;;27.13;;
11197;SDS011;5655;48.744;9.162;2023-04-21T03:33:25;49.37;;;28.10;;
11197;SDS011;5655;48.744;9.162;2023-04-21T03:35:50;48.83;;;27.43;;
11197;SDS011;5655;48.744;9.162;2023-04-21T03:38:15;48.92;;;26.95;;
11197;SDS011;5655;48.744;9.162;2023-04-21T03:40:41;45.13;;;26.00;;
11197;SDS011;5655;48.744;9.162;2023-04-21T03:43:06;53.63;;;27.85;;
11197;SDS011;5655;48.744;9.162;2023-04-21T03:45:33;53.95;;;28.05;;
11197;SDS011;5655;48.744;9.162;2023-04-21T03:47:59;50.50;;;26.17;;
11197;SDS011;5655;48.744;9.162;2023-04-21T03:50:24;48.83;;;26.87;;
11197;SDS011;5655;48.744;9.162;2023-04-21T03:52:50;47.67;;;26.50;;
11197;SDS011;5655;48.744;9.162;2023-04-21T03:55:15;56.35;;;29.27;;
11197;SDS011;5655;48.744;9.162;2023-04-21T03:57:40;51.42;;;28.88;;
11197;SDS011;5655;48.744;9.162;2023-04-21T04:00:06;51.92;;;28.27;;
11197;SDS011;5655;48.744;9.162;2023-04-21T04:02:34;58.80;;;29.50;;
11197;SDS011;5655;48.744;9.162;2023-04-21T04:05:00;57.72;;;28.90;;
11197;SDS011;5655;48.744;9.162;2023-04-21T04:07:26;56.77;;;30.10;;
11197;SDS011;5655;48.744;9.162;2023-04-21T04:09:51;74.27;;;32.93;;
11197;SDS011;5655;48.744;9.162;2023-04-21T04:12:16;67.20;;;31.97;;
11197;SDS011;5655;48.744;9.162;2023-04-21T04:14:42;64.20;;;31.87;;
11197;SDS011;5655;48.744;9.162;2023-04-21T04:17:07;65.83;;;31.27;;
11197;SDS011;5655;48.744;9.162;2023-04-21T04:19:32;68.03;;;33.67;;
11197;SDS011;5655;48.744;9.162;2023-04-21T04:21:58;62.90;;;32.07;;
11197;SDS011;5655;48.744;9.162;2023-04-21T04:24:25;68.00;;;33.03;;
11197;SDS011;5655;48.744;9.162;2023-04-21T04:26:50;69.47;;;33.47;;
11197;SDS011;5655;48.744;9.162;2023-04-21T04:29:17;72.67;;;34.40;;
11197;SDS011;5655;48.744;9.162;2023-04-21T04:31:43;77.57;;;35.73;;
11197;SDS011;5655;48.744;9.162;2023-04-21T04:34:09;84.73;;;37.23;;
11197;SDS011;5655;48.744;9.162;2023-04-21T04:36:35;77.97;;;35.40;;
11197;SDS011;5655;48.744;9.162;2023-04-21T04:39:00;88.83;;;41.13;;
11197;SDS011;5655;48.744;9.162;2023-04-21T04:41:28;82.97;;;36.63;;
11197;SDS011;5655;48.744;9.162;2023-04-21T04:43:54;78.37;;;34.80;;
11197;SDS011;5655;48.744;9.162;2023-04-21T04:46:23;83.37;;;35.17;;
11197;SDS011;5655;48.744;9.162;2023-04-21T04:48:49;82.20;;;35.33;;
11197;SDS011;5655;48.744;9.162;2023-04-21T04:51:15;84.90;;;36.87;;
11197;SDS011;5655;48.744;9.162;2023-04-21T04:53:41;81.00;;;36.23;;
11197;SDS011;5655;48.744;9.162;2023-04-21T04:56:06;86.67;;;37.83;;
11197;SDS011;5655;48.744;9.162;2023-04-21T04:58:31;84.20;;;37.85;;
11197;SDS011;5655;48.744;9.162;2023-04-21T05:00:57;85.37;;;35.70;;
11197;SDS011;5655;48.744;9.162;2023-04-21T05:03:22;79.03;;;36.23;;
11197;SDS011;5655;48.744;9.162;2023-04-21T05:05:47;83.97;;;35.97;;
11197;SDS011;5655;48.744;9.162;2023-04-21T05:08:13;88.23;;;38.50;;
11197;SDS011;5655;48.744;9.162;2023-04-21T05:10:38;77.53;;;34.33;;
11197;SDS011;5655;48.744;9.162;2023-04-21T05:13:04;82.00;;;35.33;;
11197;SDS011;5655;48.744;9.162;2023-04-21T05:15:29;82.93;;;35.80;;
11197;SDS011;5655;48.744;9.162;2023-04-21T05:17:55;79.70;;;34.70;;
11197;SDS011;5655;48.744;9.162;2023-04-21T05:20:20;76.83;;;34.30;;
11197;SDS011;5655;48.744;9.162;2023-04-21T05:22:46;73.53;;;34.47;;
11197;SDS011;5655;48.744;9.162;2023-04-21T05:25:12;76.93;;;35.43;;
11197;SDS011;5655;48.744;9.162;2023-04-21T05:27:40;75.20;;;34.37;;
11197;SDS011;5655;48.744;9.162;2023-04-21T05:30:06;79.27;;;34.47;;
11197;SDS011;5655;48.744;9.162;2023-04-21T05:32:32;74.40;;;33.67;;
11197;SDS011;5655;48.744;9.162;2023-04-21T05:34:57;78.43;;;35.28;;
11197;SDS011;5655;48.744;9.162;2023-04-21T05:37:24;83.53;;;35.17;;
11197;SDS011;5655;48.744;9.162;2023-04-21T05:39:50;72.75;;;33.40;;
11197;SDS011;5655;48.744;9.162;2023-04-21T05:42:15;82.50;;;34.63;;
11197;SDS011;5655;48.744;9.162;2023-04-21T05:44:42;80.43;;;34.85;;
11197;SDS011;5655;48.744;9.162;2023-04-21T05:47:07;77.13;;;34.47;;
11197;SDS011;5655;48.744;9.162;2023-04-21T05:49:33;84.60;;;35.88;;
11197;SDS011;5655;48.744;9.162;2023-04-21T05:51:58;76.80;;;36.33;;
11197;SDS011;5655;48.744;9.162;2023-04-21T05:54:23;83.70;;;36.60;;
11197;SDS011;5655;48.744;9.162;2023-04-21T05:56:49;79.77;;;35.33;;
11197;SDS011;5655;48.744;9.162;2023-04-21T05:59:15;80.70;;;36.50;;
11197;SDS011;5655;48.744;9.162;2023-04-21T06:01:40;71.50;;;34.80;;
11197;SDS011;5655;48.744;9.162;2023-04-21T06:04:06;75.15;;;33.42;;
11197;SDS011;5655;48.744;9.162;2023-04-21T06:06:32;73.35;;;34.25;;
11197;SDS011;5655;48.744;9.162;2023-04-21T06:08:57;80.22;;;34.58;;
11197;SDS011;5655;48.744;9.162;2023-04-21T06:11:22;83.75;;;34.88;;
11197;SDS011;5655;48.744;9.162;2023-04-21T06:13:48;73.85;;;35.47;;
11197;SDS011;5655;48.744;9.162;2023-04-21T06:16:13;76.18;;;34.47;;
11197;SDS011;5655;48.744;9.162;2023-04-21T06:18:39;83.28;;;35.45;;
11197;SDS011;5655;48.744;9.162;2023-04-21T06:21:04;79.72;;;34.78;;
11197;SDS011;5655;48.744;9.162;2023-04-21T06:23:30;74.90;;;33.40;;
11197;SDS011;5655;48.744;9.162;2023-04-21T06:26:01;84.13;;;35.50;;
11197;SDS011;5655;48.744;9.162;2023-04-21T06:28:29;74.85;;;32.53;;
11197;SDS011;5655;48.744;9.162;2023-04-21T06:30:55;73.75;;;33.90;;
11197;SDS011;5655;48.744;9.162;2023-04-21T06:33:21;70.43;;;31.77;;
11197;SDS011;5655;48.744;9.162;2023-04-21T06:35:46;65.35;;;31.80;;
11197;SDS011;5655;48.744;9.162;2023-04-21T06:38:12;69.25;;;32.17;;
11197;SDS011;5655;48.744;9.162;2023-04-21T06:40:37;64.00;;;29.70;;
11197;SDS011;5655;48.744;9.162;2023-04-21T06:43:02;55.45;;;28.20;;
11197;SDS011;5655;48.744;9.162;2023-04-21T06:45:28;61.80;;;30.08;;
11197;SDS011;5655;48.744;9.162;2023-04-21T06:47:53;60.50;;;29.20;;
11197;SDS011;5655;48.744;9.162;2023-04-21T06:50:18;57.75;;;29.65;;
11197;SDS011;5655;48.744;9.162;2023-04-21T06:52:43;55.05;;;27.63;;
11197;SDS011;5655;48.744;9.162;2023-04-21T06:55:09;52.25;;;26.65;;
11197;SDS011;5655;48.744;9.162;2023-04-21T06:57:34;58.85;;;28.92;;
11197;SDS011;5655;48.744;9.162;2023-04-21T07:00:00;50.60;;;26.65;;
11197;SDS011;5655;48.744;9.162;2023-04-21T07:02:25;53.85;;;27.27;;
11197;SDS011;5655;48.744;9.162;2023-04-21T07:04:50;44.65;;;25.45;;
11197;SDS011;5655;48.744;9.162;2023-04-21T07:07:16;46.67;;;25.30;;
11197;SDS011;5655;48.744;9.162;2023-04-21T07:09:41;49.13;;;26.85;;
11197;SDS011;5655;48.744;9.162;2023-04-21T07:12:06;47.10;;;25.95;;
11197;SDS011;5655;48.744;9.162;2023-04-21T07:14:32;44.47;;;24.45;;
11197;SDS011;5655;48.744;9.162;2023-04-21T07:16:57;43.28;;;24.48;;
11197;SDS011;5655;48.744;9.162;2023-04-21T07:19:23;40.72;;;24.63;;
11197;SDS011;5655;48.744;9.162;2023-04-21T07:21:48;40.05;;;22.35;;
11197;SDS011;5655;48.744;9.162;2023-04-21T07:24:13;40.15;;;21.92;;
11197;SDS011;5655;48.744;9.162;2023-04-21T07:26:39;33.25;;;20.33;;
11197;SDS011;5655;48.744;9.162;2023-04-21T07:29:04;32.92;;;19.75;;
11197;SDS011;5655;48.744;9.162;2023-04-21T07:31:30;26.75;;;16.60;;
11197;SDS011;5655;48.744;9.162;2023-04-21T07:33:55;29.77;;;16.83;;
11197;SDS011;5655;48.744;9.162;2023-04-21T07:36:20;23.63;;;14.93;;
11197;SDS011;5655;48.744;9.162;2023-04-21T07:38:46;23.40;;;16.13;;
11197;SDS011;5655;48.744;9.162;2023-04-21T07:41:11;23.83;;;15.23;;
11197;SDS011;5655;48.744;9.162;2023-04-21T07:43:37;22.67;;;15.32;;
11197;SDS011;5655;48.744;9.162;2023-04-21T07:46:03;24.40;;;15.45;;
11197;SDS011;5655;48.744;9.162;2023-04-21T07:48:29;23.25;;;13.90;;
11197;SDS011;5655;48.744;9.162;2023-04-21T07:50:55;21.27;;;14.48;;
11197;SDS011;5655;48.744;9.162;2023-04-21T07:53:22;22.55;;;14.25;;
11197;SDS011;5655;48.744;9.162;2023-04-21T07:55:47;18.98;;;13.05;;
11197;SDS011;5655;48.744;9.162;2023-04-21T07:58:13;19.77;;;13.27;;
11197;SDS011;5655;48.744;9.162;2023-04-21T08:00:38;20.95;;;14.52;;
11197;SDS011;5655;48.744;9.162;2023-04-21T08:03:03;20.00;;;13.48;;
11197;SDS011;5655;48.744;9.162;2023-04-21T08:05:29;18.05;;;11.88;;
11197;SDS011;5655;48.744;9.162;2023-04-21T08:07:56;18.48;;;12.65;;
11197;SDS011;5655;48.744;9.162;2023-04-21T08:10:21;19.02;;;12.85;;
11197;SDS011;5655;48.744;9.162;2023-04-21T08:12:47;16.27;;;11.15;;
11197;SDS011;5655;48.744;9.162;2023-04-21T08:15:12;16.98;;;11.77;;
11197;SDS011;5655;48.744;9.162;2023-04-21T08:17:37;14.32;;;10.07;;
11197;SDS011;5655;48.744;9.162;2023-04-21T08:20:03;13.52;;;9.60;;
11197;SDS011;5655;48.744;9.162;2023-04-21T08:22:29;13.10;;;9.32;;
11197;SDS011;5655;48.744;9.162;2023-04-21T08:24:55;11.63;;;8.15;;
11197;SDS011;5655;48.744;9.162;2023-04-21T08:27:20;11.68;;;8.85;;
11197;SDS011;5655;48.744;9.162;2023-04-21T08:29:46;11.55;;;9.23;;
11197;SDS011;5655;48.744;9.162;2023-04-21T08:32:11;15.63;;;10.32;;
11197;SDS011;5655;48.744;9.162;2023-04-21T08:34:37;12.73;;;10.07;;
11197;SDS011;5655;48.744;9.162;2023-04-21T08:37:02;13.80;;;8.88;;
11197;SDS011;5655;48.744;9.162;2023-04-21T08:39:27;11.50;;;8.45;;
11197;SDS011;5655;48.744;9.162;2023-04-21T08:41:53;11.93;;;7.80;;
11197;SDS011;5655;48.744;9.162;2023-04-21T08:44:19;9.38;;;7.07;;
11197;SDS011;5655;48.744;9.162;2023-04-21T08:46:45;9.63;;;7.00;;
11197;SDS011;5655;48.744;9.162;2023-04-21T08:49:16;9.13;;;6.57;;
11197;SDS011;5655;48.744;9.162;2023-04-21T08:51:44;7.95;;;6.20;;
11197;SDS011;5655;48.744;9.162;2023-04-21T08:54:10;9.57;;;6.88;;
11197;SDS011;5655;48.744;9.162;2023-04-21T08:56:36;9.60;;;6.65;;
11197;SDS011;5655;48.744;9.162;2023-04-21T08:59:01;10.27;;;6.95;;
11197;SDS011;5655;48.744;9.162;2023-04-21T09:01:26;9.45;;;7.05;;
11197;SDS011;5655;48.744;9.162;2023-04-21T09:03:52;9.18;;;6.72;;
11197;SDS011;5655;48.744;9.162;2023-04-21T09:06:17;9.90;;;7.05;;
11197;SDS011;5655;48.744;9.162;2023-04-21T09:08:43;8.30;;;6.03;;
11197;SDS011;5655;48.744;9.162;2023-04-21T09:11:17;7.57;;;5.20;;
11197;SDS011;5655;48.744;9.162;2023-04-21T09:13:43;7.80;;;6.20;;
11197;SDS011;5655;48.744;9.162;2023-04-21T09:16:16;11.05;;;7.68;;
11197;SDS011;5655;48.744;9.162;2023-04-21T09:18:44;8.75;;;6.95;;
11197;SDS011;5655;48.744;9.162;2023-04-21T09:21:11;8.63;;;7.13;;
11197;SDS011;5655;48.744;9.162;2023-04-21T09:26:16;10.05;;;7.10;;
11197;SDS011;5655;48.744;9.162;2023-04-21T09:28:43;9.57;;;6.90;;
11197;SDS011;5655;48.744;9.162;2023-04-21T09:31:13;9.65;;;6.88;;
11197;SDS011;5655;48.744;9.162;2023-04-21T09:33:51;9.95;;;6.88;;
11197;SDS011;5655;48.744;9.162;2023-04-21T09:36:19;9.38;;;6.07;;
11197;SDS011;5655;48.744;9.162;2023-04-21T09:38:55;7.78;;;5.68;;
11197;SDS011;5655;48.744;9.162;2023-04-21T09:41:21;7.38;;;5.60;;
11197;SDS011;5655;48.744;9.162;2023-04-21T09:43:47;7.28;;;5.00;;
11197;SDS011;5655;48.744;9.162;2023-04-21T09:46:16;7.40;;;5.72;;
11197;SDS011;5655;48.744;9.162;2023-04-21T09:48:43;7.43;;;5.00;;
11197;SDS011;5655;48.744;9.162;2023-04-21T09:51:13;6.97;;;5.40;;
11197;SDS011;5655;48.744;9.162;2023-04-21T09:53:40;7.25;;;5.25;;
11197;SDS011;5655;48.744;9.162;2023-04-21T09:56:10;10.10;;;5.95;;
11197;SDS011;5655;48.744;9.162;2023-04-21T09:58:39;6.95;;;5.28;;
11197;SDS011;5655;48.744;9.162;2023-04-21T10:01:12;6.85;;;5.22;;
11197;SDS011;5655;48.744;9.162;2023-04-21T10:03:38;8.27;;;5.30;;
11197;SDS011;5655;48.744;9.162;2023-04-21T10:06:05;8.75;;;5.68;;
11197;SDS011;5655;48.744;9.162;2023-04-21T10:08:31;10.93;;;6.18;;
11197;SDS011;5655;48.744;9.162;2023-04-21T10:10:58;9.55;;;6.38;;
11197;SDS011;5655;48.744;9.162;2023-04-21T10:13:24;9.85;;;6.30;;
11197;SDS011;5655;48.744;9.162;2023-04-21T10:15:49;7.75;;;6.30;;
11197;SDS011;5655;48.744;9.162;2023-04-21T10:18:27;9.13;;;6.32;;
11197;SDS011;5655;48.744;9.162;2023-04-21T10:20:57;11.18;;;7.00;;
11197;SDS011;5655;48.744;9.162;2023-04-21T10:26:00;8.23;;;5.85;;
11197;SDS011;5655;48.744;9.162;2023-04-21T10:39:24;8.77;;;6.65;;
11197;SDS011;5655;48.744;9.162;2023-04-21T10:41:49;8.55;;;6.68;;
11197;SDS011;5655;48.744;9.162;2023-04-21T10:44:15;9.13;;;6.50;;
11197;SDS011;5655;48.744;9.162;2023-04-21T10:46:44;10.43;;;7.40;;
11197;SDS011;5655;48.744;9.162;2023-04-21T10:54:35;11.40;;;6.80;;
11197;SDS011;5655;48.744;9.162;2023-04-21T10:57:09;9.88;;;6.80;;
11197;SDS011;5655;48.744;9.162;2023-04-21T10:59:40;8.77;;;6.95;;
11197;SDS011;5655;48.744;9.162;2023-04-21T11:02:06;8.40;;;6.63;;
11197;SDS011;5655;48.744;9.162;2023-04-21T11:04:32;11.23;;;7.32;;
11197;SDS011;5655;48.744;9.162;2023-04-21T11:07:09;12.68;;;7.68;;
11197;SDS011;5655;48.744;9.162;2023-04-21T11:09:36;8.93;;;7.38;;
11197;SDS011;5655;48.744;9.162;2023-04-21T11:12:03;8.43;;;6.97;;
11197;SDS011;5655;48.744;9.162;2023-04-21T11:14:32;13.55;;;7.60;;
11197;SDS011;5655;48.744;9.162;2023-04-21T11:16:59;7.50;;;6.68;;
11197;SDS011;5655;48.744;9.162;2023-04-21T11:19:25;7.50;;;6.50;;
11197;SDS011;5655;48.744;9.162;2023-04-21T11:21:51;9.57;;;6.88;;
11197;SDS011;5655;48.744;9.162;2023-04-21T11:24:19;8.48;;;6.90;;
11197;SDS011;5655;48.744;9.162;2023-04-21T11:26:45;8.73;;;7.22;;
11197;SDS011;5655;48.744;9.162;2023-04-21T11:29:10;8.10;;;6.80;;
11197;SDS011;5655;48.744;9.162;2023-04-21T11:31:39;9.38;;;6.25;;
11197;SDS011;5655;48.744;9.162;2023-04-21T11:34:06;8.98;;;6.65;;
11197;SDS011;5655;48.744;9.162;2023-04-21T11:36:33;7.28;;;6.53;;
11197;SDS011;5655;48.744;9.162;2023-04-21T11:39:02;8.45;;;7.05;;
11197;SDS011;5655;48.744;9.162;2023-04-21T11:41:32;8.85;;;7.13;;
11197;SDS011;5655;48.744;9.162;2023-04-21T11:43:57;8.57;;;6.32;;
11197;SDS011;5655;48.744;9.162;2023-04-21T11:46:23;7.65;;;6.45;;
11197;SDS011;5655;48.744;9.162;2023-04-21T11:48:57;8.23;;;6.60;;
11197;SDS011;5655;48.744;9.162;2023-04-21T11:51:23;7.75;;;5.85;;
11197;SDS011;5655;48.744;9.162;2023-04-21T11:53:49;7.10;;;5.70;;
11197;SDS011;5655;48.744;9.162;2023-04-21T11:56:21;6.15;;;5.47;;
11197;SDS011;5655;48.744;9.162;2023-04-21T11:58:47;6.25;;;4.85;;
11197;SDS011;5655;48.744;9.162;2023-04-21T12:01:15;6.07;;;4.93;;
11197;SDS011;5655;48.744;9.162;2023-04-21T12:03:40;9.70;;;5.80;;
11197;SDS011;5655;48.744;9.162;2023-04-21T12:06:06;6.67;;;5.77;;
11197;SDS011;5655;48.744;9.162;2023-04-21T12:08:31;5.67;;;5.07;;
11197;SDS011;5655;48.744;9.162;2023-04-21T12:10:57;6.03;;;5.43;;
11197;SDS011;5655;48.744;9.162;2023-04-21T12:13:23;6.77;;;5.50;;
11197;SDS011;5655;48.744;9.162;2023-04-21T12:15:51;6.32;;;5.38;;
11197;SDS011;5655;48.744;9.162;2023-04-21T12:18:16;9.85;;;6.25;;
11197;SDS011;5655;48.744;9.162;2023-04-21T12:20:48;7.47;;;6.25;;
11197;SDS011;5655;48.744;9.162;2023-04-21T12:23:15;7.38;;;5.72;;
11197;SDS011;5655;48.744;9.162;2023-04-21T12:25:41;11.05;;;6.60;;
11197;SDS011;5655;48.744;9.162;2023-04-21T12:28:07;8.82;;;6.07;;
11197;SDS011;5655;48.744;9.162;2023-04-21T12:30:33;7.65;;;6.10;;
11197;SDS011;5655;48.744;9.162;2023-04-21T12:32:58;7.25;;;5.28;;
11197;SDS011;5655;48.744;9.162;2023-04-21T12:35:24;5.78;;;5.00;;
11197;SDS011;5655;48.744;9.162;2023-04-21T12:37:50;7.43;;;5.93;;
11197;SDS011;5655;48.744;9.162;2023-04-21T12:40:16;5.90;;;5.30;;
11197;SDS011;5655;48.744;9.162;2023-04-21T12:42:41;6.00;;;5.22;;
11197;SDS011;5655;48.744;9.162;2023-04-21T12:45:07;8.30;;;4.88;;
11197;SDS011;5655;48.744;9.162;2023-04-21T12:47:33;5.68;;;4.90;;
11197;SDS011;5655;48.744;9.162;2023-04-21T12:49:59;8.23;;;4.97;;
11197;SDS011;5655;48.744;9.162;2023-04-21T12:52:24;8.85;;;4.60;;
11197;SDS011;5655;48.744;9.162;2023-04-21T12:54:50;6.28;;;4.78;;
11197;SDS011;5655;48.744;9.162;2023-04-21T12:57:15;7.35;;;4.85;;
11197;SDS011;5655;48.744;9.162;2023-04-21T12:59:40;6.45;;;4.57;;
11197;SDS011;5655;48.744;9.162;2023-04-21T13:02:06;4.53;;;4.13;;
11197;SDS011;5655;48.744;9.162;2023-04-21T13:04:31;5.72;;;4.80;;
11197;SDS011;5655;48.744;9.162;2023-04-21T13:06:57;5.45;;;4.53;;
11197;SDS011;5655;48.744;9.162;2023-04-21T13:09:22;5.45;;;4.43;;
11197;SDS011;5655;48.744;9.162;2023-04-21T13:11:47;5.07;;;4.22;;
11197;SDS011;5655;48.744;9.162;2023-04-21T13:14:13;5.25;;;3.95;;
11197;SDS011;5655;48.744;9.162;2023-04-21T13:16:39;5.00;;;4.30;;
11197;SDS011;5655;48.744;9.162;2023-04-21T13:19:05;4.90;;;4.40;;
11197;SDS011;5655;48.744;9.162;2023-04-21T13:21:30;3.95;;;3.55;;
11197;SDS011;5655;48.744;9.162;2023-04-21T13:23:56;10.20;;;5.25;;
11197;SDS011;5655;48.744;9.162;2023-04-21T13:26:22;4.20;;;3.78;;
11197;SDS011;5655;48.744;9.162;2023-04-21T13:28:47;5.10;;;3.92;;
11197;SDS011;5655;48.744;9.162;2023-04-21T13:31:13;5.32;;;4.15;;
11197;SDS011;5655;48.744;9.162;2023-04-21T13:33:39;5.50;;;4.47;;
11197;SDS011;5655;48.744;9.162;2023-04-21T13:36:05;4.55;;;4.03;;
11197;SDS011;5655;48.744;9.162;2023-04-21T13:38:30;6.00;;;4.07;;
11197;SDS011;5655;48.744;9.162;2023-04-21T13:40:56;5.10;;;4.60;;
11197;SDS011;5655;48.744;9.162;2023-04-21T13:43:22;4.70;;;4.20;;
11197;SDS011;5655;48.744;9.162;2023-04-21T13:45:47;6.00;;;4.10;;
11197;SDS011;5655;48.744;9.162;2023-04-21T13:48:15;4.45;;;3.78;;
11197;SDS011;5655;48.744;9.162;2023-04-21T13:50:41;5.35;;;4.63;;
11197;SDS011;5655;48.744;9.162;2023-04-21T13:53:07;4.95;;;4.35;;
11197;SDS011;5655;48.744;9.162;2023-04-21T13:55:32;5.65;;;3.83;;
11197;SDS011;5655;48.744;9.162;2023-04-21T13:57:58;5.60;;;3.90;;
11197;SDS011;5655;48.744;9.162;2023-04-21T14:00:24;5.10;;;2.83;;
11197;SDS011;5655;48.744;9.162;2023-04-21T14:02:50;3.05;;;2.22;;
11197;SDS011;5655;48.744;9.162;2023-04-21T14:05:15;2.40;;;2.20;;
11197;SDS011;5655;48.744;9.162;2023-04-21T14:07:41;2.55;;;2.20;;
11197;SDS011;5655;48.744;9.162;2023-04-21T14:10:07;2.38;;;2.17;;
11197;SDS011;5655;48.744;9.162;2023-04-21T14:12:33;2.05;;;1.85;;
11197;SDS011;5655;48.744;9.162;2023-04-21T14:14:58;2.53;;;2.30;;
11197;SDS011;5655;48.744;9.162;2023-04-21T14:17:23;3.53;;;2.00;;
11197;SDS011;5655;48.744;9.162;2023-04-21T14:19:49;1.65;;;1.50;;
11197;SDS011;5655;48.744;9.162;2023-04-21T14:22:14;2.40;;;2.00;;
11197;SDS011;5655;48.744;9.162;2023-04-21T14:24:40;2.97;;;2.67;;
11197;SDS011;5655;48.744;9.162;2023-04-21T14:27:05;2.65;;;2.00;;
11197;SDS011;5655;48.744;9.162;2023-04-21T14:29:30;2.40;;;2.20;;
11197;SDS011;5655;48.744;9.162;2023-04-21T14:31:56;2.45;;;2.25;;
11197;SDS011;5655;48.744;9.162;2023-04-21T14:34:25;3.55;;;1.98;;
11197;SDS011;5655;48.744;9.162;2023-04-21T14:36:50;1.92;;;1.63;;
11197;SDS011;5655;48.744;9.162;2023-04-21T14:39:16;2.15;;;1.95;;
11197;SDS011;5655;48.744;9.162;2023-04-21T14:41:42;3.30;;;2.15;;
11197;SDS011;5655;48.744;9.162;2023-04-21T14:44:08;4.63;;;2.28;;
11197;SDS011;5655;48.744;9.162;2023-04-21T14:46:33;2.10;;;1.90;;
11197;SDS011;5655;48.744;9.162;2023-04-21T14:48:59;2.40;;;2.05;;
11197;SDS011;5655;48.744;9.162;2023-04-21T14:51:24;3.53;;;2.10;;
11197;SDS011;5655;48.744;9.162;2023-04-21T14:53:50;3.45;;;2.10;;
11197;SDS011;5655;48.744;9.162;2023-04-21T14:56:16;2.13;;;1.92;;
11197;SDS011;5655;48.744;9.162;2023-04-21T14:58:41;3.20;;;2.30;;
11197;SDS011;5655;48.744;9.162;2023-04-21T15:01:06;2.75;;;1.90;;